HALF-HOURLY OBSERVATIONS INDEX

073

Southwest Slopes - north

TEMORA AIRPORT

Site: 073151
Alt: 280.5m
54km WNW of COOTAMUNDRA


  Time     Wind        Temp  DP   Baro     Rain since   Rain past  Vis(m), Cloud(base in m), Weather
  local        km/h                         9am  last   hr   10m    
Mon 11:00    N  2/  9  28.9 11.5  1016.2    0.0   0.0   0.0   0.0   ----- 
Mon 11:30  NNE  7/  9  30.4  9.3  1016.1    0.0   0.0   0.0   0.0   ----- 
Mon 12:00  ENE  7/ 13  31.2  9.4  1015.8    0.0   0.0   0.0   0.0   ----- 
Mon 12:30    E  9/ 20  32.3  5.0  1015.6    0.0   0.0   0.0   0.0   ----- 
Mon 13:00   SW 13/ 20  33.5  4.2  1015.5    0.0   0.0   0.0   0.0   ----- 
Mon 13:30  SSW 13/ 20  32.0  3.1  1015.2    0.0   0.0   0.0   0.0   ----- 
Mon 14:00   NW 11/ 17  33.0  4.7  1014.9    0.0   0.0   0.0   0.0   ----- 
Mon 14:30   SW 13/ 20  32.8  0.8  1014.6    0.0   0.0   0.0   0.0   ----- 
Mon 15:00   SE 11/ 20  33.8  1.6  1014.0    0.0   0.0   0.0   0.0   ----- 
Mon 15:30  WSW  9/ 15  35.1  3.6  1013.5    0.0   0.0   0.0   0.0   ----- 
Mon 16:00    S  7/ 17  34.7  1.1  1013.1    0.0   0.0   0.0   0.0   ----- 
Mon 16:30   SW 15/ 26  35.3  0.4  1012.9    0.0   0.0   0.0   0.0   ----- 

YOUNG AIRPORT

Site: 073138
Alt: 379.6m
9km NW of YOUNG


  Time     Wind        Temp  DP   Baro     Rain since   Rain past  Vis(m), Cloud(base in m), Weather
  local        km/h                         9am  last   hr   10m    
Mon 11:00    E  4/  7  27.8 13.3  1016.2    0.0   0.0   0.0   0.0   10000 
Mon 11:30  SSW  7/ 13  29.0 11.6  1016.1    0.0   0.0   0.0   0.0   10000 
Mon 12:00  SSW 13/ 17  28.8  7.9  1015.9    0.0   0.0   0.0   0.0   10000 
Mon 12:30  SSW  9/ 15  28.9 10.1  1015.8    0.0   0.0   0.0   0.0   10000 
Mon 13:00  SSE  9/ 15  29.9  7.8  1015.5    0.0   0.0   0.0   0.0   10000 
Mon 13:30  WSW 13/ 20  30.6  4.4  1015.4    0.0   0.0   0.0   0.0   10000 
Mon 14:00    W 11/ 15  30.3  6.2  1015.1    0.0   0.0   0.0   0.0   10000 
Mon 14:30  WNW  9/ 13  30.6  7.7  1014.8    0.0   0.0   0.0   0.0   10000 
Mon 15:00    W  7/ 15  30.7  8.4  1014.4    0.0   0.0   0.0   0.0   10000 
Mon 15:30  WSW  7/ 11  31.1  8.2  1014.2    0.0   0.0   0.0   0.0   10000 
Mon 16:00  WSW 11/ 22  31.6  5.9  1013.8    0.0   0.0   0.0   0.0   10000 
Mon 16:30  ENE  7/ 19  32.3  5.7  1013.3    0.0   0.0   0.0   0.0   10000